Wekiva Springs, Florida
Current Conditions -  °F | °C
As of 6:53 AM on Thursday 18 Dec 2014 (Local Time) from KORL Reporting Station
Clear Clear  
Wind Chill: 49°   Ceiling: Unl
Heat Index: 49°   Visibility: 10mi
Dew Point: 45°   Wind: 3mph
Humidity: 86%   Direction: 300°WNW
Pressure: 30.14"   Gusts: NA
Location:  28.7°N, 81.42°W
Report Text: KORL 181153Z 30003KT 10SM CLR 09/07 A3014 RMK AO2 SLP212 T00940072 10117 20094 53002
Loading
Personal Weather Stations






























Interactive Weather Map New forecast layout! Learn more

10-Day Weather Forecast

Advertisements
Track Severe Weather on mobile